Time;durP1;ratioP1;P1;durP2;ratioP2;P2;SDS_P1;SDS_P2;PMS_P1;PMS_P2;Temp;Humidity;BMP_temperature;BMP_pressure;BME280_temperature;BME280_humidity;BME280_pressure;Samples;Min_cycle;Max_cycle;Signal;HPM_P1;HPM_P2
2022/09/12 00:01:49;;;;;;;4.57;2.85;;;;;;;;;;5084155;28;20037;-75
2022/09/12 00:04:17;;;;;;;4.30;3.15;;;;;;;;;;5083377;28;20029;-75
2022/09/12 00:06:44;;;;;;;4.65;3.28;;;;;;;;;;5081637;28;20056;-75
2022/09/12 00:09:12;;;;;;;5.65;4.15;;;;;;;;;;5081639;28;20072;-76
2022/09/12 00:11:41;;;;;;;5.60;4.05;;;;;;;;;;5080955;28;20033;-77
2022/09/12 00:14:10;;;;;;;4.95;3.55;;;;;;;;;;5079269;28;20031;-76
2022/09/12 00:16:37;;;;;;;5.80;3.92;;;;;;;;;;5077121;28;20103;-75
2022/09/12 00:19:05;;;;;;;4.35;3.10;;;;;;;;;;5081951;28;20045;-75
2022/09/12 00:21:33;;;;;;;19.55;3.20;;;;;;;;;;5079619;28;20049;-76
2022/09/12 00:24:00;;;;;;;6.55;3.15;;;;;;;;;;5082293;28;20063;-75
2022/09/12 00:26:28;;;;;;;4.72;3.58;;;;;;;;;;5071592;28;20068;-76
2022/09/12 00:28:55;;;;;;;4.70;3.13;;;;;;;;;;5082173;28;20044;-76
2022/09/12 00:31:23;;;;;;;5.80;3.45;;;;;;;;;;5082586;28;20049;-75
2022/09/12 00:33:52;;;;;;;6.93;3.55;;;;;;;;;;5078090;28;20151;-75
2022/09/12 00:36:20;;;;;;;9.82;4.28;;;;;;;;;;5079766;28;20085;-75
2022/09/12 00:38:48;;;;;;;9.20;4.30;;;;;;;;;;5082574;28;20049;-76
2022/09/12 00:41:18;;;;;;;5.90;4.00;;;;;;;;;;5083511;28;20057;-75
2022/09/12 00:43:47;;;;;;;7.65;3.55;;;;;;;;;;5082881;28;20033;-75
2022/09/12 00:46:14;;;;;;;3.47;2.30;;;;;;;;;;5085851;28;20143;-75
2022/09/12 00:48:43;;;;;;;4.88;2.10;;;;;;;;;;5074248;28;20048;-75
2022/09/12 00:51:11;;;;;;;4.35;2.30;;;;;;;;;;5072202;28;20037;-75
2022/09/12 00:53:38;;;;;;;6.53;2.80;;;;;;;;;;5078593;28;20063;-76
2022/09/12 00:56:06;;;;;;;4.93;2.72;;;;;;;;;;5073729;28;20050;-76
2022/09/12 00:58:37;;;;;;;5.00;2.90;;;;;;;;;;5079371;28;20068;-75
2022/09/12 01:01:04;;;;;;;3.67;2.60;;;;;;;;;;5057388;28;20469;-75
2022/09/12 01:03:31;;;;;;;4.75;2.83;;;;;;;;;;5077580;28;20030;-76
2022/09/12 01:06:06;;;;;;;5.53;2.75;;;;;;;;;;5080255;28;20048;-76
2022/09/12 01:08:36;;;;;;;6.22;3.10;;;;;;;;;;5065899;28;20061;-76
2022/09/12 01:11:04;;;;;;;7.40;3.15;;;;;;;;;;5079532;28;20077;-75
2022/09/12 01:13:34;;;;;;;5.70;3.28;;;;;;;;;;5078968;28;20045;-76
2022/09/12 01:16:03;;;;;;;6.65;3.53;;;;;;;;;;5073769;28;20056;-74
2022/09/12 01:18:42;;;;;;;4.30;3.10;;;;;;;;;;5074708;28;20081;-75
2022/09/12 01:21:20;;;;;;;11.77;3.08;;;;;;;;;;5074385;28;20136;-75
2022/09/12 01:23:47;;;;;;;4.82;3.17;;;;;;;;;;5068730;28;20112;-75
2022/09/12 01:26:32;;;;;;;4.97;3.00;;;;;;;;;;5071609;28;20881;-75
2022/09/12 01:28:59;;;;;;;6.10;3.55;;;;;;;;;;5059425;28;20072;-75
2022/09/12 01:31:29;;;;;;;9.65;3.42;;;;;;;;;;5076801;28;21020;-76
2022/09/12 01:34:15;;;;;;;6.13;3.63;;;;;;;;;;5070758;28;20040;-75
2022/09/12 01:36:47;;;;;;;8.57;3.38;;;;;;;;;;5067322;28;20064;-74
2022/09/12 01:39:30;;;;;;;9.05;4.50;;;;;;;;;;5074144;28;20914;-75
2022/09/12 01:42:10;;;;;;;7.00;3.67;;;;;;;;;;5069249;28;20091;-74
2022/09/12 01:44:54;;;;;;;5.35;3.42;;;;;;;;;;5075974;28;20045;-75
2022/09/12 01:47:31;;;;;;;7.00;4.28;;;;;;;;;;5073339;28;20053;-75
2022/09/12 01:50:01;;;;;;;9.07;4.80;;;;;;;;;;5070649;28;20119;-74
2022/09/12 01:52:31;;;;;;;9.43;4.30;;;;;;;;;;5065265;28;20880;-75
2022/09/12 01:55:06;;;;;;;7.65;4.70;;;;;;;;;;5071096;28;20059;-74
2022/09/12 01:57:54;;;;;;;13.30;5.45;;;;;;;;;;5068228;28;20081;-74
2022/09/12 02:00:21;;;;;;;10.43;4.32;;;;;;;;;;5072327;28;20053;-75
2022/09/12 02:02:55;;;;;;;6.07;4.05;;;;;;;;;;5063043;28;20119;-75
2022/09/12 02:05:41;;;;;;;12.75;4.45;;;;;;;;;;5062518;28;20033;-75
2022/09/12 02:08:14;;;;;;;18.15;4.63;;;;;;;;;;5067368;28;20053;-74
2022/09/12 02:11:01;;;;;;;9.30;4.15;;;;;;;;;;5066750;28;20049;-75
2022/09/12 02:13:32;;;;;;;7.28;4.13;;;;;;;;;;5073227;28;20045;-74
2022/09/12 02:16:05;;;;;;;8.65;4.53;;;;;;;;;;5061813;28;20108;-75
2022/09/12 02:18:33;;;;;;;6.75;4.28;;;;;;;;;;5071168;28;20052;-76
2022/09/12 02:21:01;;;;;;;12.32;4.28;;;;;;;;;;5070142;28;20051;-77
2022/09/12 02:23:29;;;;;;;7.20;4.30;;;;;;;;;;5067842;28;20108;-76
2022/09/12 02:26:06;;;;;;;7.72;3.80;;;;;;;;;;5066497;28;20837;-75
2022/09/12 02:28:39;;;;;;;6.90;4.45;;;;;;;;;;5044139;28;20061;-76
2022/09/12 02:31:25;;;;;;;10.15;4.38;;;;;;;;;;5066112;28;20139;-76
2022/09/12 02:34:01;;;;;;;12.23;4.57;;;;;;;;;;5060276;28;20058;-76
2022/09/12 02:36:35;;;;;;;9.18;4.78;;;;;;;;;;5063649;28;20507;-76
2022/09/12 02:39:03;;;;;;;6.28;3.55;;;;;;;;;;5058146;28;20053;-76
2022/09/12 02:41:30;;;;;;;11.10;4.78;;;;;;;;;;5066003;28;20498;-77
2022/09/12 02:43:57;;;;;;;20.23;4.95;;;;;;;;;;5063652;28;20049;-76
2022/09/12 02:46:27;;;;;;;11.35;4.88;;;;;;;;;;5063379;28;20060;-77
2022/09/12 02:48:55;;;;;;;7.85;4.45;;;;;;;;;;5063002;28;20064;-76
2022/09/12 02:51:22;;;;;;;10.23;4.30;;;;;;;;;;5066606;28;20053;-76
2022/09/12 02:53:50;;;;;;;7.45;4.50;;;;;;;;;;5057926;28;20057;-76
2022/09/12 02:56:19;;;;;;;8.52;4.72;;;;;;;;;;5060824;28;20812;-76
2022/09/12 02:58:46;;;;;;;9.63;4.15;;;;;;;;;;5053958;28;20103;-76
2022/09/12 03:01:27;;;;;;;10.82;4.18;;;;;;;;;;5061403;28;20037;-76
2022/09/12 03:03:57;;;;;;;7.70;4.32;;;;;;;;;;5064284;28;20124;-76
2022/09/12 03:06:51;;;;;;;9.63;5.38;;;;;;;;;;5065262;28;20484;-76
2022/09/12 03:09:37;;;;;;;11.57;5.13;;;;;;;;;;5062871;28;20088;-76
2022/09/12 03:12:04;;;;;;;6.07;4.10;;;;;;;;;;5065018;28;20512;-76
2022/09/12 03:14:43;;;;;;;7.57;5.03;;;;;;;;;;5059462;28;20104;-76
2022/09/12 03:17:10;;;;;;;8.07;5.10;;;;;;;;;;5065118;28;20057;-78
2022/09/12 03:19:49;;;;;;;13.27;6.35;;;;;;;;;;5066722;28;20715;-76
2022/09/12 03:22:43;;;;;;;12.60;5.95;;;;;;;;;;5077724;28;20829;-76
2022/09/12 03:25:33;;;;;;;9.70;5.55;;;;;;;;;;5069760;28;20136;-77
2022/09/12 03:28:08;;;;;;;13.55;6.53;;;;;;;;;;5068637;28;20077;-77
2022/09/12 03:30:40;;;;;;;14.80;6.05;;;;;;;;;;5067740;28;20053;-76
2022/09/12 03:33:10;;;;;;;14.98;7.13;;;;;;;;;;5066980;28;20046;-76
2022/09/12 03:35:37;;;;;;;18.77;7.00;;;;;;;;;;5071587;28;20107;-76
2022/09/12 03:38:06;;;;;;;12.02;6.50;;;;;;;;;;5066922;28;20053;-76
2022/09/12 03:40:34;;;;;;;9.82;6.10;;;;;;;;;;5064410;28;20564;-77
2022/09/12 03:43:01;;;;;;;11.85;6.50;;;;;;;;;;5066575;28;20193;-76
2022/09/12 03:45:28;;;;;;;10.32;6.57;;;;;;;;;;5072095;28;20045;-76
2022/09/12 03:47:56;;;;;;;11.80;6.93;;;;;;;;;;5065188;28;20857;-77
2022/09/12 03:50:23;;;;;;;11.35;5.72;;;;;;;;;;5070655;28;20099;-76
2022/09/12 03:52:50;;;;;;;12.30;6.20;;;;;;;;;;5071976;28;20844;-76
2022/09/12 03:55:17;;;;;;;12.15;6.80;;;;;;;;;;5059865;28;20050;-77
2022/09/12 03:57:44;;;;;;;11.13;6.78;;;;;;;;;;5070786;28;20056;-75
2022/09/12 04:00:11;;;;;;;10.75;6.78;;;;;;;;;;5072284;28;20057;-75
2022/09/12 04:02:45;;;;;;;12.05;7.15;;;;;;;;;;5066109;28;20759;-76
2022/09/12 04:05:12;;;;;;;11.32;6.68;;;;;;;;;;5065487;28;20056;-76
2022/09/12 04:07:39;;;;;;;13.25;7.07;;;;;;;;;;5065927;28;20053;-75
2022/09/12 04:10:06;;;;;;;12.75;7.95;;;;;;;;;;5054143;28;20056;-76
2022/09/12 04:12:38;;;;;;;15.23;8.68;;;;;;;;;;5061693;28;20059;-76
2022/09/12 04:15:06;;;;;;;16.48;7.90;;;;;;;;;;5069445;28;20037;-76
2022/09/12 04:17:34;;;;;;;15.00;5.60;;;;;;;;;;5071749;28;20507;-76
2022/09/12 04:20:01;;;;;;;13.50;4.82;;;;;;;;;;5069829;28;20055;-75
2022/09/12 04:22:30;;;;;;;13.82;5.00;;;;;;;;;;5062594;28;20046;-76
2022/09/12 04:24:58;;;;;;;9.43;4.85;;;;;;;;;;5070972;28;20041;-75
2022/09/12 04:27:25;;;;;;;9.68;5.13;;;;;;;;;;5071244;28;20030;-75
2022/09/12 04:29:53;;;;;;;7.93;4.78;;;;;;;;;;5072826;28;20075;-76
2022/09/12 04:32:21;;;;;;;10.52;5.45;;;;;;;;;;5069106;28;20621;-75
2022/09/12 04:34:48;;;;;;;10.38;5.45;;;;;;;;;;5065810;28;20106;-76
2022/09/12 04:37:15;;;;;;;12.50;5.70;;;;;;;;;;5072254;28;20064;-75
2022/09/12 04:39:42;;;;;;;13.85;5.88;;;;;;;;;;5066767;28;20443;-76
2022/09/12 04:42:10;;;;;;;15.73;5.57;;;;;;;;;;5067067;28;20065;-75
2022/09/12 04:44:37;;;;;;;8.48;5.88;;;;;;;;;;5071219;28;20049;-75
2022/09/12 04:47:04;;;;;;;10.38;6.20;;;;;;;;;;5071458;28;20877;-75
2022/09/12 04:49:31;;;;;;;12.93;7.63;;;;;;;;;;5062679;28;20045;-75
2022/09/12 04:51:58;;;;;;;17.65;7.70;;;;;;;;;;5066299;28;20872;-75
2022/09/12 04:54:26;;;;;;;14.43;7.78;;;;;;;;;;5065093;28;20033;-75
2022/09/12 04:56:54;;;;;;;15.60;7.72;;;;;;;;;;5070278;28;20083;-75
2022/09/12 04:59:22;;;;;;;18.70;8.25;;;;;;;;;;5071937;28;20050;-75
2022/09/12 05:01:50;;;;;;;16.23;9.00;;;;;;;;;;5062608;28;20056;-76
2022/09/12 05:04:18;;;;;;;17.42;8.38;;;;;;;;;;5060625;28;20045;-75
2022/09/12 05:06:46;;;;;;;15.82;8.15;;;;;;;;;;5070405;28;20142;-76
2022/09/12 05:09:13;;;;;;;13.50;8.27;;;;;;;;;;5067945;28;20054;-76
2022/09/12 05:11:41;;;;;;;17.67;6.85;;;;;;;;;;5072956;28;20936;-77
2022/09/12 05:14:31;;;;;;;11.90;6.85;;;;;;;;;;5075298;28;20049;-75
2022/09/12 05:17:00;;;;;;;12.80;6.25;;;;;;;;;;5076304;28;20924;-76
2022/09/12 05:19:28;;;;;;;13.88;6.93;;;;;;;;;;5060477;28;20045;-76
2022/09/12 05:21:55;;;;;;;14.63;7.60;;;;;;;;;;5076576;28;20067;-76
2022/09/12 05:24:23;;;;;;;16.58;8.15;;;;;;;;;;5074045;28;20041;-76
2022/09/12 05:26:50;;;;;;;12.27;7.53;;;;;;;;;;5069369;28;20045;-77
2022/09/12 05:29:17;;;;;;;13.25;7.95;;;;;;;;;;5066410;28;20076;-76
2022/09/12 05:31:50;;;;;;;18.55;9.07;;;;;;;;;;5070790;28;20099;-75
2022/09/12 05:34:18;;;;;;;15.43;9.30;;;;;;;;;;5072848;28;20060;-76
2022/09/12 05:36:46;;;;;;;17.63;9.65;;;;;;;;;;5065923;28;20049;-76
2022/09/12 05:39:13;;;;;;;17.83;10.60;;;;;;;;;;5069138;28;20053;-76
2022/09/12 05:41:43;;;;;;;22.23;10.38;;;;;;;;;;5070940;28;20053;-76
2022/09/12 05:44:13;;;;;;;19.13;9.85;;;;;;;;;;5052836;28;20064;-76
2022/09/12 05:46:41;;;;;;;23.20;9.45;;;;;;;;;;5072437;28;20081;-75
2022/09/12 05:49:22;;;;;;;19.15;9.73;;;;;;;;;;5142897;27;1231260;-76
2022/09/12 05:51:50;;;;;;;20.63;9.10;;;;;;;;;;5157368;27;20055;-75
2022/09/12 05:54:19;;;;;;;18.67;9.00;;;;;;;;;;5159025;27;21189;-75
2022/09/12 05:56:47;;;;;;;20.83;9.57;;;;;;;;;;5159769;27;20055;-75
2022/09/12 05:59:16;;;;;;;14.57;8.85;;;;;;;;;;5165477;27;20050;-75
2022/09/12 06:01:44;;;;;;;22.92;10.05;;;;;;;;;;5166930;27;20048;-75
2022/09/12 06:04:11;;;;;;;19.60;9.95;;;;;;;;;;5179006;27;20050;-76
2022/09/12 06:06:43;;;;;;;20.67;12.20;;;;;;;;;;5176171;27;20041;-75
2022/09/12 06:09:12;;;;;;;21.58;11.77;;;;;;;;;;5174368;27;20063;-75
2022/09/12 06:11:42;;;;;;;20.83;12.35;;;;;;;;;;5176401;27;20076;-74
2022/09/12 06:14:10;;;;;;;29.90;14.50;;;;;;;;;;5170102;27;20933;-75
2022/09/12 06:16:38;;;;;;;34.08;15.13;;;;;;;;;;5173325;27;20032;-76
2022/09/12 06:19:07;;;;;;;36.92;16.85;;;;;;;;;;5171006;27;20039;-76
2022/09/12 06:21:38;;;;;;;34.70;17.70;;;;;;;;;;5173567;27;20416;-76
2022/09/12 06:24:08;;;;;;;41.10;18.52;;;;;;;;;;5174450;27;20043;-79
2022/09/12 06:26:37;;;;;;;33.47;17.73;;;;;;;;;;5169059;27;20062;-78
2022/09/12 06:29:04;;;;;;;36.70;15.80;;;;;;;;;;5172776;27;20093;-77
2022/09/12 06:31:36;;;;;;;31.10;15.93;;;;;;;;;;5172724;27;20035;-78
2022/09/12 06:34:06;;;;;;;31.83;17.48;;;;;;;;;;5169475;27;20032;-77
2022/09/12 06:36:36;;;;;;;32.22;16.88;;;;;;;;;;5168533;27;20060;-78
2022/09/12 06:39:06;;;;;;;45.30;19.63;;;;;;;;;;5156961;27;20044;-77
2022/09/12 06:41:33;;;;;;;37.60;19.42;;;;;;;;;;5156845;27;20069;-77
2022/09/12 06:44:01;;;;;;;48.42;21.85;;;;;;;;;;5168068;27;20103;-77
2022/09/12 06:46:31;;;;;;;40.72;20.25;;;;;;;;;;5164829;27;20093;-77
2022/09/12 06:48:59;;;;;;;48.42;22.67;;;;;;;;;;5162800;27;20061;-77
2022/09/12 06:51:27;;;;;;;52.20;22.58;;;;;;;;;;5157149;27;20074;-77
2022/09/12 06:53:55;;;;;;;51.90;25.08;;;;;;;;;;5164706;27;20102;-77
2022/09/12 06:56:27;;;;;;;56.67;26.50;;;;;;;;;;5158709;27;20907;-76
2022/09/12 06:58:55;;;;;;;50.30;25.15;;;;;;;;;;5160727;27;20047;-76
2022/09/12 07:01:30;;;;;;;55.40;26.40;;;;;;;;;;5131488;27;20044;-76
2022/09/12 07:03:59;;;;;;;55.92;27.73;;;;;;;;;;5137787;27;20055;-77
2022/09/12 07:06:30;;;;;;;59.47;27.80;;;;;;;;;;5143675;27;20032;-76
2022/09/12 07:08:58;;;;;;;59.47;26.77;;;;;;;;;;5138684;27;20059;-76
2022/09/12 07:11:27;;;;;;;59.38;27.55;;;;;;;;;;5136679;27;20043;-76
2022/09/12 07:13:55;;;;;;;55.20;26.83;;;;;;;;;;5139016;27;20061;-77
2022/09/12 07:16:23;;;;;;;54.45;26.20;;;;;;;;;;5136271;27;20037;-78
2022/09/12 07:19:01;;;;;;;60.75;28.02;;;;;;;;;;5142577;27;20043;-77
2022/09/12 07:21:28;;;;;;;58.00;28.23;;;;;;;;;;5139998;27;20044;-77
2022/09/12 07:23:59;;;;;;;51.15;26.38;;;;;;;;;;5142534;27;20036;-77
2022/09/12 07:26:27;;;;;;;61.95;29.80;;;;;;;;;;5145492;27;20055;-77
2022/09/12 07:28:58;;;;;;;55.88;28.98;;;;;;;;;;5151238;27;20043;-76
2022/09/12 07:31:45;;;;;;;59.85;28.77;;;;;;;;;;5133498;27;20060;-76
2022/09/12 07:34:14;;;;;;;54.80;28.65;;;;;;;;;;5133480;27;20040;-77
2022/09/12 07:36:42;;;;;;;55.83;29.23;;;;;;;;;;5139851;27;20028;-77
2022/09/12 07:39:10;;;;;;;52.45;28.63;;;;;;;;;;5136374;27;20044;-76
2022/09/12 07:41:37;;;;;;;56.05;27.60;;;;;;;;;;5141060;27;20052;-76
2022/09/12 07:44:05;;;;;;;54.20;27.20;;;;;;;;;;5142844;27;20809;-76
2022/09/12 07:46:34;;;;;;;48.28;26.42;;;;;;;;;;5136564;27;20040;-77
2022/09/12 07:49:02;;;;;;;43.90;24.88;;;;;;;;;;5137296;27;20198;-76
2022/09/12 07:51:31;;;;;;;47.88;25.52;;;;;;;;;;5141124;27;20054;-76
2022/09/12 07:53:58;;;;;;;42.03;23.25;;;;;;;;;;5144701;27;20098;-77
2022/09/12 07:56:27;;;;;;;43.53;23.75;;;;;;;;;;5142499;27;20048;-77
2022/09/12 07:58:58;;;;;;;43.72;23.83;;;;;;;;;;5133339;27;20082;-78
2022/09/12 08:01:28;;;;;;;43.42;23.42;;;;;;;;;;5134856;27;20112;-76
2022/09/12 08:03:59;;;;;;;34.75;22.48;;;;;;;;;;5143254;27;20040;-77
2022/09/12 08:06:35;;;;;;;36.17;22.17;;;;;;;;;;5143159;27;20059;-76
2022/09/12 08:09:04;;;;;;;38.85;22.35;;;;;;;;;;5145700;27;20054;-77
2022/09/12 08:11:34;;;;;;;43.10;22.45;;;;;;;;;;5137044;27;20092;-77
2022/09/12 08:14:04;;;;;;;42.08;22.98;;;;;;;;;;5145727;27;20115;-78
2022/09/12 08:16:35;;;;;;;41.65;22.27;;;;;;;;;;5143878;27;20046;-77
2022/09/12 08:19:03;;;;;;;36.55;22.17;;;;;;;;;;5141310;27;20048;-75
2022/09/12 08:21:33;;;;;;;38.47;20.88;;;;;;;;;;5144495;27;20073;-77
2022/09/12 08:24:04;;;;;;;37.92;22.08;;;;;;;;;;5140291;27;20059;-78
2022/09/12 08:26:32;;;;;;;39.03;20.85;;;;;;;;;;5140048;27;20059;-77
2022/09/12 08:28:59;;;;;;;32.63;20.90;;;;;;;;;;5138623;27;20056;-76
2022/09/12 08:31:27;;;;;;;32.22;20.33;;;;;;;;;;5142434;27;20107;-76
2022/09/12 08:33:55;;;;;;;35.25;22.35;;;;;;;;;;5136024;27;20055;-75
2022/09/12 08:36:23;;;;;;;33.25;21.25;;;;;;;;;;5142125;27;20078;-75
2022/09/12 08:38:57;;;;;;;33.03;19.48;;;;;;;;;;5142251;27;20040;-76
2022/09/12 08:41:35;;;;;;;34.92;20.30;;;;;;;;;;5149618;27;20036;-76
2022/09/12 08:44:13;;;;;;;34.72;20.00;;;;;;;;;;5155619;27;20044;-78
2022/09/12 08:46:44;;;;;;;34.38;20.35;;;;;;;;;;5141417;27;20032;-77
2022/09/12 08:49:13;;;;;;;32.88;19.73;;;;;;;;;;5141631;27;20051;-78
2022/09/12 08:51:41;;;;;;;36.20;19.17;;;;;;;;;;5135121;27;20048;-76
2022/09/12 08:54:20;;;;;;;29.23;17.80;;;;;;;;;;5146224;27;20138;-77
2022/09/12 08:56:48;;;;;;;27.40;17.67;;;;;;;;;;5139234;27;20039;-77
2022/09/12 08:59:15;;;;;;;27.23;17.80;;;;;;;;;;5143348;27;20044;-76
2022/09/12 09:01:45;;;;;;;29.73;17.30;;;;;;;;;;5134768;27;20044;-75
2022/09/12 09:04:26;;;;;;;28.88;17.90;;;;;;;;;;5146409;27;20060;-76
2022/09/12 09:07:13;;;;;;;26.90;17.58;;;;;;;;;;5143880;27;20024;-76
2022/09/12 09:09:43;;;;;;;23.77;16.42;;;;;;;;;;5142834;27;20036;-76
2022/09/12 09:12:16;;;;;;;25.80;16.65;;;;;;;;;;5146026;27;20059;-77
2022/09/12 09:14:49;;;;;;;;;;;;;;;;;;5137665;27;20066;-75
2022/09/12 09:17:18;;;;;;;;;;;;;;;;;;5137310;27;44837;-75
2022/09/12 09:20:05;;;;;;;26.10;16.55;;;;;;;;;;5140940;27;44625;-74
2022/09/12 09:22:56;;;;;;;25.85;15.05;;;;;;;;;;5156749;27;20043;-74
2022/09/12 09:25:25;;;;;;;26.20;16.75;;;;;;;;;;5134799;27;20064;-74
2022/09/12 09:27:56;;;;;;;24.70;16.08;;;;;;;;;;5134309;27;20035;-76
2022/09/12 09:30:27;;;;;;;20.58;14.52;;;;;;;;;;5132628;27;20473;-77
2022/09/12 09:32:56;;;;;;;21.88;15.60;;;;;;;;;;5136723;27;20071;-75
2022/09/12 09:35:42;;;;;;;26.20;15.80;;;;;;;;;;5145405;27;20051;-76
2022/09/12 09:38:12;;;;;;;24.30;15.38;;;;;;;;;;5139838;27;20036;-76
2022/09/12 09:40:56;;;;;;;25.70;15.95;;;;;;;;;;5135309;27;20066;-76
2022/09/12 09:43:27;;;;;;;25.58;15.50;;;;;;;;;;5140089;27;20061;-76
2022/09/12 09:45:56;;;;;;;24.80;15.55;;;;;;;;;;5142172;27;20047;-75
2022/09/12 09:48:31;;;;;;;22.13;15.55;;;;;;;;;;5137499;27;20142;-75
2022/09/12 09:51:00;;;;;;;21.40;15.60;;;;;;;;;;5142237;27;20040;-75
2022/09/12 09:53:41;;;;;;;21.55;15.48;;;;;;;;;;5136876;27;20043;-74
2022/09/12 09:56:47;;;;;;;19.60;14.55;;;;;;;;;;5141337;27;20051;-76
2022/09/12 09:59:19;;;;;;;25.92;14.80;;;;;;;;;;5075628;28;20033;-74
2022/09/12 10:01:47;;;;;;;;;;;;;;;;;;5073541;28;20045;-74
2022/09/12 10:04:17;;;;;;;24.73;13.75;;;;;;;;;;5073370;28;42757;-76
2022/09/12 10:06:45;;;;;;;20.33;13.23;;;;;;;;;;5077902;28;20124;-75
2022/09/12 10:09:32;;;;;;;21.50;13.13;;;;;;;;;;5080706;28;20100;-74
2022/09/12 10:12:03;;;;;;;17.23;12.63;;;;;;;;;;5064996;28;20037;-74
2022/09/12 10:14:39;;;;;;;16.83;12.88;;;;;;;;;;5072492;28;20923;-76
2022/09/12 10:17:26;;;;;;;15.13;11.43;;;;;;;;;;5073313;28;20041;-75
2022/09/12 10:20:01;;;;;;;18.63;11.63;;;;;;;;;;5071609;28;20037;-75
2022/09/12 10:22:48;;;;;;;17.42;12.05;;;;;;;;;;5069949;28;20988;-74
2022/09/12 10:25:16;;;;;;;20.48;12.60;;;;;;;;;;5072679;28;20045;-75
2022/09/12 10:27:43;;;;;;;17.23;11.98;;;;;;;;;;5070804;28;20041;-76
2022/09/12 10:30:14;;;;;;;14.70;11.05;;;;;;;;;;5103912;27;20083;-75
2022/09/12 10:32:45;;;;;;;20.45;10.90;;;;;;;;;;5133769;27;20043;-75
2022/09/12 10:35:21;;;;;;;16.20;10.88;;;;;;;;;;5128464;27;20052;-75
2022/09/12 10:37:57;;;;;;;13.85;9.90;;;;;;;;;;5134709;27;20055;-74
2022/09/12 10:40:37;;;;;;;16.55;9.35;;;;;;;;;;5135607;27;20052;-74
2022/09/12 10:43:17;;;;;;;11.57;8.73;;;;;;;;;;5133777;27;20052;-76
2022/09/12 10:45:45;;;;;;;11.38;8.10;;;;;;;;;;5131630;27;20055;-76
2022/09/12 10:48:30;;;;;;;13.57;8.20;;;;;;;;;;5134878;27;20065;-75
2022/09/12 10:50:58;;;;;;;11.48;8.10;;;;;;;;;;5133428;27;20044;-75
2022/09/12 10:53:27;;;;;;;16.00;8.20;;;;;;;;;;5133413;27;20055;-75
2022/09/12 10:56:06;;;;;;;10.80;7.65;;;;;;;;;;5131224;27;20055;-76
2022/09/12 10:58:33;;;;;;;11.60;7.18;;;;;;;;;;5146023;27;20860;-75
2022/09/12 11:01:09;;;;;;;11.82;6.85;;;;;;;;;;5127318;27;20052;-75
2022/09/12 11:03:50;;;;;;;10.98;6.70;;;;;;;;;;5131941;27;20903;-75
2022/09/12 11:06:19;;;;;;;11.55;6.97;;;;;;;;;;5131648;27;20059;-75
2022/09/12 11:08:56;;;;;;;10.38;6.47;;;;;;;;;;5130877;27;20050;-75
2022/09/12 11:11:38;;;;;;;10.23;6.30;;;;;;;;;;5132861;27;20028;-76
2022/09/12 11:14:20;;;;;;;11.03;6.63;;;;;;;;;;5134820;27;20058;-75
2022/09/12 11:17:03;;;;;;;10.70;6.10;;;;;;;;;;5123279;27;20044;-75
2022/09/12 11:19:49;;;;;;;9.80;5.43;;;;;;;;;;5125506;27;20051;-75
2022/09/12 11:22:19;;;;;;;10.70;6.68;;;;;;;;;;5129678;27;20138;-74
2022/09/12 11:24:51;;;;;;;9.43;6.85;;;;;;;;;;5130967;27;20048;-74
2022/09/12 11:27:41;;;;;;;15.35;7.07;;;;;;;;;;5126619;27;20052;-75
2022/09/12 11:30:10;;;;;;;8.88;6.45;;;;;;;;;;5117551;27;20062;-75
2022/09/12 11:32:58;;;;;;;8.43;6.28;;;;;;;;;;5140563;27;20809;-75
2022/09/12 11:35:30;;;;;;;9.25;6.18;;;;;;;;;;5132063;27;20048;-75
2022/09/12 11:38:17;;;;;;;7.80;5.20;;;;;;;;;;5131655;27;20056;-74
2022/09/12 11:40:55;;;;;;;7.82;4.85;;;;;;;;;;5134335;27;20063;-75
2022/09/12 11:43:25;;;;;;;7.95;4.40;;;;;;;;;;5130036;27;20078;-75
2022/09/12 11:45:52;;;;;;;8.27;4.28;;;;;;;;;;5129335;27;20043;-74
2022/09/12 11:48:46;;;;;;;7.22;3.80;;;;;;;;;;5132090;27;20054;-73
2022/09/12 11:51:18;;;;;;;6.55;3.80;;;;;;;;;;5133567;27;20035;-74
2022/09/12 11:53:58;;;;;;;5.10;3.80;;;;;;;;;;5134004;27;20054;-75
2022/09/12 11:56:25;;;;;;;5.95;4.03;;;;;;;;;;5137867;27;20056;-76
2022/09/12 11:58:59;;;;;;;9.63;3.85;;;;;;;;;;5132640;27;20841;-74
2022/09/12 12:01:38;;;;;;;8.13;4.03;;;;;;;;;;5126357;27;20047;-76
2022/09/12 12:04:15;;;;;;;9.02;3.90;;;;;;;;;;5133935;27;20808;-76
2022/09/12 12:07:10;;;;;;;6.38;3.60;;;;;;;;;;5129153;27;20051;-74
2022/09/12 12:09:58;;;;;;;5.63;3.80;;;;;;;;;;5129118;27;20055;-75
2022/09/12 12:12:27;;;;;;;6.32;3.75;;;;;;;;;;5130472;27;20044;-74
2022/09/12 12:14:55;;;;;;;7.75;3.10;;;;;;;;;;5134446;27;20052;-74
2022/09/12 12:17:23;;;;;;;6.45;3.50;;;;;;;;;;5137588;27;20108;-75
2022/09/12 12:20:01;;;;;;;5.53;3.08;;;;;;;;;;5131611;27;20042;-75
2022/09/12 12:22:34;;;;;;;5.82;3.65;;;;;;;;;;5123776;27;20494;-75
2022/09/12 12:25:23;;;;;;;6.43;3.70;;;;;;;;;;5127850;27;20056;-75
2022/09/12 12:28:05;;;;;;;6.18;3.60;;;;;;;;;;5129917;27;20069;-75
2022/09/12 12:30:33;;;;;;;4.90;3.25;;;;;;;;;;5132645;27;20105;-75
2022/09/12 12:33:01;;;;;;;5.32;3.30;;;;;;;;;;5132895;27;20040;-76
2022/09/12 12:35:42;;;;;;;5.50;3.97;;;;;;;;;;5135740;27;20036;-75
2022/09/12 12:38:35;;;;;;;5.97;3.78;;;;;;;;;;5134044;27;20051;-76
2022/09/12 12:41:18;;;;;;;6.43;3.88;;;;;;;;;;5128058;27;20555;-76
2022/09/12 12:43:49;;;;;;;4.53;3.17;;;;;;;;;;5128148;27;20036;-75
2022/09/12 12:46:16;;;;;;;5.30;3.20;;;;;;;;;;5129565;27;20798;-75
2022/09/12 12:48:57;;;;;;;5.18;3.65;;;;;;;;;;5121641;27;20086;-75
2022/09/12 12:51:28;;;;;;;6.22;3.20;;;;;;;;;;5123951;27;20059;-76
2022/09/12 12:53:55;;;;;;;6.22;3.53;;;;;;;;;;5125410;27;20047;-75
2022/09/12 12:56:27;;;;;;;7.03;3.45;;;;;;;;;;5126046;27;20060;-75
2022/09/12 12:58:59;;;;;;;6.65;3.22;;;;;;;;;;5127097;27;20808;-76
2022/09/12 13:01:27;;;;;;;6.28;3.53;;;;;;;;;;5117647;27;20145;-75
2022/09/12 13:04:00;;;;;;;5.53;3.72;;;;;;;;;;5128200;27;20048;-75
2022/09/12 13:06:35;;;;;;;5.65;3.50;;;;;;;;;;5121028;27;20048;-76
2022/09/12 13:09:05;;;;;;;7.15;4.00;;;;;;;;;;5124957;27;20047;-75
2022/09/12 13:11:34;;;;;;;5.18;3.60;;;;;;;;;;5116831;27;20056;-76
2022/09/12 13:14:05;;;;;;;5.50;3.90;;;;;;;;;;5124002;27;20036;-75
2022/09/12 13:16:33;;;;;;;9.10;4.43;;;;;;;;;;5118167;27;20056;-75
2022/09/12 13:19:03;;;;;;;5.40;3.50;;;;;;;;;;5128882;27;20050;-75
2022/09/12 13:21:32;;;;;;;5.03;2.92;;;;;;;;;;5124029;27;20052;-75
2022/09/12 13:24:12;;;;;;;4.38;2.80;;;;;;;;;;5122070;27;20078;-75
2022/09/12 13:26:41;;;;;;;5.82;3.30;;;;;;;;;;5124322;27;20047;-75
2022/09/12 13:29:16;;;;;;;7.00;3.65;;;;;;;;;;5125079;27;20044;-75
2022/09/12 13:31:45;;;;;;;5.40;3.38;;;;;;;;;;5124213;27;20082;-76
2022/09/12 13:34:21;;;;;;;7.55;4.15;;;;;;;;;;5122671;27;20058;-76
2022/09/12 13:36:54;;;;;;;6.40;3.80;;;;;;;;;;5122080;27;20052;-76
2022/09/12 13:39:27;;;;;;;6.05;3.63;;;;;;;;;;5122837;27;20882;-75
2022/09/12 13:42:12;;;;;;;7.45;3.70;;;;;;;;;;5130631;27;20914;-75
2022/09/12 13:44:44;;;;;;;5.05;3.17;;;;;;;;;;5124251;27;20074;-75
2022/09/12 13:47:15;;;;;;;5.35;3.50;;;;;;;;;;5125974;27;20951;-76
2022/09/12 13:49:43;;;;;;;6.47;3.30;;;;;;;;;;5129833;27;20048;-76
2022/09/12 13:52:16;;;;;;;8.38;4.72;;;;;;;;;;5128351;27;20036;-75
2022/09/12 13:54:46;;;;;;;7.18;3.90;;;;;;;;;;5129918;27;20040;-75
2022/09/12 13:57:29;;;;;;;6.28;3.63;;;;;;;;;;5127169;27;20097;-75
2022/09/12 13:59:57;;;;;;;5.57;3.58;;;;;;;;;;5140357;27;20304;-76
2022/09/12 14:02:27;;;;;;;5.93;3.80;;;;;;;;;;5122833;27;20044;-75
2022/09/12 14:05:10;;;;;;;8.52;3.40;;;;;;;;;;5119600;27;20044;-77
2022/09/12 14:07:40;;;;;;;5.15;3.67;;;;;;;;;;5129571;27;20032;-75
2022/09/12 14:10:08;;;;;;;5.72;3.08;;;;;;;;;;5123824;27;20054;-76
2022/09/12 14:12:42;;;;;;;4.88;2.90;;;;;;;;;;5131762;27;20055;-75
2022/09/12 14:15:18;;;;;;;5.05;3.08;;;;;;;;;;5130186;27;21029;-76
2022/09/12 14:17:53;;;;;;;8.45;3.70;;;;;;;;;;5126834;27;20048;-76
2022/09/12 14:20:22;;;;;;;7.25;3.70;;;;;;;;;;5131664;27;20047;-75
2022/09/12 14:22:52;;;;;;;8.98;3.63;;;;;;;;;;5133978;27;20048;-76
2022/09/12 14:25:24;;;;;;;5.78;2.72;;;;;;;;;;5142568;27;20058;-76
2022/09/12 14:27:52;;;;;;;5.27;2.87;;;;;;;;;;5126198;27;20086;-76
2022/09/12 14:30:36;;;;;;;6.18;3.10;;;;;;;;;;5130152;27;20071;-75
2022/09/12 14:33:09;;;;;;;3.95;2.50;;;;;;;;;;5124512;27;20490;-75
2022/09/12 14:35:36;;;;;;;4.43;2.60;;;;;;;;;;5129950;27;20048;-74
2022/09/12 14:38:15;;;;;;;7.15;2.60;;;;;;;;;;5132937;27;20055;-75
2022/09/12 14:40:44;;;;;;;3.55;2.42;;;;;;;;;;5133274;27;20040;-76
2022/09/12 14:43:40;;;;;;;4.15;2.95;;;;;;;;;;5129444;27;20055;-75
2022/09/12 14:46:14;;;;;;;4.88;2.78;;;;;;;;;;5122431;27;20078;-75
2022/09/12 14:48:43;;;;;;;7.63;3.45;;;;;;;;;;5134563;27;20091;-76
2022/09/12 14:51:21;;;;;;;7.53;2.80;;;;;;;;;;5129748;27;20946;-75
2022/09/12 14:53:51;;;;;;;5.70;2.90;;;;;;;;;;5131959;27;20059;-76
2022/09/12 14:56:20;;;;;;;4.22;2.65;;;;;;;;;;5133333;27;20054;-75
2022/09/12 14:58:48;;;;;;;7.72;2.60;;;;;;;;;;5132816;27;20043;-75
2022/09/12 15:01:15;;;;;;;3.90;2.20;;;;;;;;;;5130426;27;20104;-75
2022/09/12 15:03:43;;;;;;;3.97;2.33;;;;;;;;;;5127951;27;20051;-76